Time;durP1;ratioP1;P1;durP2;ratioP2;P2;SDS_P1;SDS_P2;PMS_P1;PMS_P2;Temp;Humidity;BMP_temperature;BMP_pressure;BME280_temperature;BME280_humidity;BME280_pressure;Samples;Min_cycle;Max_cycle;Signal;HPM_P1;HPM_P2
2022/01/09 00:43:18;;;;;;;10.00;2.33;;;19.00;54.50;;;;;;103359236;28;83921;-75
2022/01/09 01:33:19;;;;;;;2.78;0.80;;;18.50;54.40;;;;;;103303436;28;20442;-76
2022/01/09 02:23:19;;;;;;;1.27;0.43;;;18.20;53.50;;;;;;103302639;28;20037;-76
2022/01/09 03:13:20;;;;;;;3.42;0.57;;;17.90;53.50;;;;;;103333409;22;20054;-73
2022/01/09 04:03:21;;;;;;;5.70;0.93;;;17.50;52.40;;;;;;103317929;28;20038;-72
2022/01/09 04:53:21;;;;;;;0.90;0.40;;;17.20;53.30;;;;;;103295344;28;20113;-71
2022/01/09 05:43:24;;;;;;;3.60;0.32;;;17.10;52.40;;;;;;103115661;28;20556;-72
2022/01/09 06:33:24;;;;;;;2.00;0.47;;;17.00;52.80;;;;;;103305527;28;20658;-72
2022/01/09 07:23:25;;;;;;;1.20;0.50;;;16.90;52.60;;;;;;103334775;28;20057;-72
2022/01/09 08:13:26;;;;;;;29.83;2.50;;;18.10;51.10;;;;;;103162739;28;20103;-74
2022/01/09 09:03:26;;;;;;;21.15;4.13;;;20.40;46.40;;;;;;103242849;23;20038;-78
2022/01/09 09:53:27;;;;;;;25.08;5.03;;;20.60;47.50;;;;;;103180371;28;20027;-78
2022/01/09 10:43:34;;;;;;;16.92;3.78;;;20.10;49.30;;;;;;103332599;28;20038;-76
2022/01/09 11:34:00;;;;;;;12.50;3.13;;;20.20;49.70;;;;;;103363101;28;20052;-76
2022/01/09 12:24:39;;;;;;;8.83;2.63;;;19.90;49.50;;;;;;103354937;28;20442;-79
2022/01/09 13:14:44;;;;;;;28.03;4.33;;;20.20;49.10;;;;;;103331711;28;20049;-77
2022/01/09 14:16:33;;;;;;;27.33;7.60;;;23.00;45.80;;;;;;1005299;27;20598;-47
2022/01/09 14:17:26;;;;;;;22.83;7.13;;;21.00;50.60;;;;;;1016540;28;20038;-48
2022/01/09 14:17:57;;;;;;;26.67;6.93;;;21.00;50.50;;;;;;1043237;28;20025;-49
2022/01/09 14:18:30;;;;;;;23.50;6.25;;;21.00;50.50;;;;;;1043350;28;20017;-46
2022/01/09 14:19:05;;;;;;;24.33;6.60;;;21.00;50.60;;;;;;1043380;28;20376;-51
2022/01/09 14:19:44;;;;;;;20.25;6.15;;;21.00;50.60;;;;;;1043059;28;20017;-47
2022/01/09 14:20:20;;;;;;;21.00;5.22;;;21.00;50.60;;;;;;1043217;28;20384;-50
2022/01/09 14:20:59;;;;;;;27.77;6.47;;;21.00;50.50;;;;;;1043330;28;20009;-46
2022/01/09 14:21:30;;;;;;;20.48;6.55;;;21.00;50.60;;;;;;1043308;28;20025;-46
2022/01/09 14:22:02;;;;;;;27.35;5.65;;;21.00;50.60;;;;;;1043217;28;20379;-47
2022/01/09 14:22:47;;;;;;;33.90;8.07;;;21.00;50.60;;;;;;1043281;28;20039;-47
2022/01/09 14:23:17;;;;;;;29.85;5.68;;;21.00;50.60;;;;;;1043388;28;20476;-45
2022/01/09 14:23:51;;;;;;;25.13;6.47;;;20.90;50.50;;;;;;1043262;28;20032;-47
2022/01/09 14:24:22;;;;;;;14.70;6.30;;;21.00;50.60;;;;;;1043263;28;20060;-49
2022/01/09 14:25:05;;;;;;;22.27;6.13;;;21.00;50.70;;;;;;1043284;28;20438;-51
2022/01/09 14:25:37;;;;;;;29.23;6.35;;;21.00;50.70;;;;;;1043376;28;20602;-50
2022/01/09 14:26:11;;;;;;;24.98;5.80;;;20.90;50.60;;;;;;1043266;28;20017;-46
2022/01/09 14:26:57;;;;;;;27.67;6.72;;;20.90;50.60;;;;;;1043215;28;20088;-47
2022/01/09 14:27:30;;;;;;;18.50;5.45;;;20.90;50.60;;;;;;1043411;28;20013;-46
2022/01/09 14:28:04;;;;;;;16.00;5.95;;;20.90;50.70;;;;;;1043231;28;20465;-48
2022/01/09 14:28:36;;;;;;;26.70;7.45;;;20.90;50.70;;;;;;1043271;28;20009;-49
2022/01/09 14:29:07;;;;;;;24.55;5.60;;;20.90;50.60;;;;;;1043262;28;20019;-51
2022/01/09 14:29:38;;;;;;;32.08;6.78;;;21.00;50.70;;;;;;1043061;28;20020;-50
2022/01/09 14:30:23;;;;;;;20.00;6.13;;;20.90;50.70;;;;;;1043212;28;20384;-48
2022/01/09 14:31:03;;;;;;;28.50;6.38;;;20.90;50.60;;;;;;1043217;28;20044;-49
2022/01/09 14:31:36;;;;;;;21.80;6.35;;;20.90;50.60;;;;;;1043276;28;20064;-51
2022/01/09 14:32:17;;;;;;;18.85;5.80;;;20.90;50.70;;;;;;1043080;28;20615;-51
2022/01/09 14:33:02;;;;;;;25.15;6.63;;;20.90;50.70;;;;;;1043259;28;20096;-52
2022/01/09 14:33:33;;;;;;;22.63;7.10;;;20.90;50.70;;;;;;1043348;28;20100;-46
2022/01/09 14:34:06;;;;;;;16.27;5.47;;;21.00;50.80;;;;;;1043283;28;20010;-51
2022/01/09 14:34:41;;;;;;;18.83;5.72;;;20.90;50.70;;;;;;1043223;28;20019;-52
2022/01/09 14:35:28;;;;;;;28.30;5.60;;;21.00;50.70;;;;;;1043270;28;20067;-48
2022/01/09 14:36:05;;;;;;;17.00;5.70;;;21.00;50.70;;;;;;1043182;28;20067;-49
2022/01/09 14:36:36;;;;;;;16.90;6.05;;;21.00;50.70;;;;;;1043142;28;20032;-51
2022/01/09 14:37:11;;;;;;;30.23;8.20;;;21.00;50.80;;;;;;1043116;28;20016;-48
2022/01/09 14:37:48;;;;;;;16.88;5.88;;;21.00;50.80;;;;;;1043332;28;20518;-46
2022/01/09 14:38:25;;;;;;;16.65;6.13;;;21.00;50.70;;;;;;1043226;28;20494;-47
2022/01/09 14:38:58;;;;;;;23.10;6.38;;;21.00;50.70;;;;;;1043319;28;20013;-52
2022/01/09 14:39:32;;;;;;;18.85;5.30;;;21.00;50.80;;;;;;1043233;28;20025;-56
2022/01/09 14:40:10;;;;;;;26.10;6.18;;;21.00;50.80;;;;;;1043336;28;20005;-46
2022/01/09 14:40:49;;;;;;;17.58;5.20;;;21.00;50.70;;;;;;1043369;28;20021;-52
2022/01/09 14:41:24;;;;;;;20.17;5.57;;;21.00;50.70;;;;;;1043237;28;20371;-49
2022/01/09 14:41:55;;;;;;;21.15;5.10;;;21.00;50.80;;;;;;1043203;28;20375;-48
2022/01/09 14:42:25;;;;;;;20.70;5.03;;;21.00;50.80;;;;;;1043256;28;20016;-47
2022/01/09 14:42:56;;;;;;;20.98;5.63;;;21.00;50.80;;;;;;1043170;28;20105;-48
2022/01/09 14:43:29;;;;;;;21.77;4.70;;;21.00;51.30;;;;;;1043300;28;20352;-48
2022/01/09 14:44:01;;;;;;;18.85;5.82;;;21.00;50.90;;;;;;1043251;28;20062;-50
2022/01/09 14:44:34;;;;;;;19.50;5.47;;;21.00;50.90;;;;;;1043190;28;20068;-49
2022/01/09 14:45:05;;;;;;;21.13;5.20;;;21.00;50.90;;;;;;1043160;28;20100;-50
2022/01/09 14:45:36;;;;;;;19.38;5.70;;;21.00;50.90;;;;;;1043271;28;20372;-47
2022/01/09 14:46:07;;;;;;;12.20;5.15;;;21.00;50.90;;;;;;1043210;28;20013;-50
2022/01/09 14:46:39;;;;;;;19.35;5.43;;;21.00;50.90;;;;;;1043261;28;20005;-51
2022/01/09 14:47:10;;;;;;;17.63;5.22;;;21.00;50.90;;;;;;1043370;28;20017;-46
2022/01/09 14:47:40;;;;;;;13.75;4.63;;;21.00;50.90;;;;;;1043308;28;20083;-48
2022/01/09 14:48:11;;;;;;;24.95;4.90;;;21.00;50.90;;;;;;1043315;28;20026;-47
2022/01/09 14:48:42;;;;;;;17.08;5.28;;;21.00;50.90;;;;;;1043356;28;20013;-47
2022/01/09 14:49:13;;;;;;;20.08;5.22;;;21.00;50.90;;;;;;1043469;28;20022;-51
2022/01/09 14:49:44;;;;;;;11.35;4.32;;;21.00;51.00;;;;;;1043069;28;20016;-48
2022/01/09 14:50:15;;;;;;;28.40;5.00;;;21.00;50.90;;;;;;1043470;28;20024;-47
2022/01/09 14:50:47;;;;;;;16.90;5.88;;;21.00;51.00;;;;;;1042948;28;20013;-51
2022/01/09 14:51:18;;;;;;;21.70;4.93;;;21.00;51.00;;;;;;1042672;28;20136;-51
2022/01/09 14:51:50;;;;;;;19.58;5.35;;;21.00;51.00;;;;;;1042977;28;20075;-52
2022/01/09 14:52:20;;;;;;;18.40;5.82;;;21.00;51.00;;;;;;1043033;28;20444;-48
2022/01/09 14:52:51;;;;;;;19.90;5.05;;;21.00;51.00;;;;;;1043248;28;20005;-47
2022/01/09 14:53:22;;;;;;;19.35;4.93;;;21.00;51.00;;;;;;1043278;28;20032;-49
2022/01/09 14:53:55;;;;;;;19.40;6.00;;;21.00;51.10;;;;;;1043243;28;20017;-48
2022/01/09 15:44:32;;;;;;;16.83;3.67;;;21.00;51.00;;;;;;104283438;23;21016;-48
2022/01/09 16:34:32;;;;;;;19.77;4.27;;;21.20;51.60;;;;;;104280187;28;20124;-49
2022/01/09 17:24:33;;;;;;;23.00;3.30;;;22.00;51.00;;;;;;104075247;28;20136;-50
2022/01/09 18:14:33;;;;;;;6.85;2.40;;;22.40;49.70;;;;;;104124417;28;20040;-51
2022/01/09 19:04:34;;;;;;;11.30;3.25;;;22.60;48.60;;;;;;103873568;28;20033;-49
2022/01/09 20:38:21;;;;;;;25.27;3.77;;;22.20;53.80;;;;;;105300081;28;20183;-74
2022/01/09 21:28:21;;;;;;;6.13;2.72;;;21.10;52.40;;;;;;105117982;28;20489;-74
2022/01/09 22:18:24;;;;;;;6.53;2.63;;;20.80;52.40;;;;;;104776123;22;20111;-77
2022/01/09 23:08:25;;;;;;;7.03;1.87;;;20.30;54.20;;;;;;104990770;28;20051;-80
